Time;durP1;ratioP1;P1;durP2;ratioP2;P2;SDS_P1;SDS_P2;PMS_P1;PMS_P2;Temp;Humidity;BMP_temperature;BMP_pressure;BME280_temperature;BME280_humidity;BME280_pressure;Samples;Min_cycle;Max_cycle;Signal;HPM_P1;HPM_P2
2023/08/30 00:04:37;;;;;;;1.85;1.00;;;;;;;13.60;100.00;97791.13;15273863;19;20018;-59
2023/08/30 00:10:02;;;;;;;2.35;1.40;;;;;;;13.54;100.00;97784.63;15274890;19;20022;-57
2023/08/30 00:15:27;;;;;;;3.13;1.50;;;;;;;13.47;100.00;97800.81;15272513;19;20014;-59
2023/08/30 00:20:55;;;;;;;2.88;1.60;;;;;;;13.39;100.00;97811.75;15271101;19;20392;-60
2023/08/30 00:26:20;;;;;;;2.75;1.65;;;;;;;13.30;100.00;97812.94;15266348;19;20014;-60
2023/08/30 00:31:47;;;;;;;5.95;1.90;;;;;;;13.20;100.00;97813.25;15266305;19;20018;-58
2023/08/30 00:37:15;;;;;;;4.28;1.70;;;;;;;13.12;100.00;97799.84;15273454;19;20029;-60
2023/08/30 00:42:40;;;;;;;4.22;1.60;;;;;;;13.06;100.00;97809.56;15270032;19;20018;-58
2023/08/30 00:48:06;;;;;;;5.18;1.73;;;;;;;12.99;100.00;97800.56;15273189;19;20053;-60
2023/08/30 00:53:41;;;;;;;4.20;2.03;;;;;;;12.92;100.00;97795.09;15269128;19;20035;-58
2023/08/30 00:59:06;;;;;;;3.08;1.60;;;;;;;12.86;100.00;97804.81;15265931;19;20042;-63
2023/08/30 01:04:30;;;;;;;1.70;1.33;;;;;;;12.77;100.00;97797.81;15264207;19;20015;-60
2023/08/30 01:09:59;;;;;;;3.47;1.40;;;;;;;12.71;100.00;97806.72;15271639;19;20019;-60
2023/08/30 01:15:27;;;;;;;2.08;1.55;;;;;;;12.63;100.00;97802.25;15268880;19;20022;-60
2023/08/30 01:20:55;;;;;;;3.33;1.63;;;;;;;12.56;100.00;97812.97;15264485;19;20010;-60
2023/08/30 01:26:29;;;;;;;4.85;1.50;;;;;;;12.51;100.00;97804.63;15268843;19;20014;-60
2023/08/30 01:31:57;;;;;;;2.40;1.70;;;;;;;12.44;100.00;97817.19;15259700;19;20483;-61
2023/08/30 01:37:22;;;;;;;2.20;1.40;;;;;;;12.38;100.00;97820.66;15265434;19;20074;-59
2023/08/30 01:42:48;;;;;;;1.67;1.30;;;;;;;12.31;100.00;97810.56;15267781;19;20467;-53
2023/08/30 01:48:20;;;;;;;2.33;1.40;;;;;;;12.28;100.00;97815.53;15267135;19;20006;-55
2023/08/30 01:53:47;;;;;;;6.25;1.45;;;;;;;12.25;100.00;97821.28;15266680;19;20659;-55
2023/08/30 01:59:18;;;;;;;12.27;1.80;;;;;;;12.22;100.00;97822.50;15264051;19;20033;-57
2023/08/30 02:04:46;;;;;;;58.33;2.70;;;;;;;12.20;100.00;97829.94;15255913;19;20078;-56
2023/08/30 02:10:15;;;;;;;70.35;2.70;;;;;;;12.16;100.00;97826.78;15261281;19;20295;-54
2023/08/30 02:15:44;;;;;;;37.10;2.42;;;;;;;12.11;100.00;97834.59;15264098;19;20025;-55
2023/08/30 02:21:11;;;;;;;151.30;3.88;;;;;;;12.08;100.00;97836.84;15259388;19;20015;-56
2023/08/30 02:26:36;;;;;;;123.70;3.17;;;;;;;12.01;100.00;97829.50;15263019;19;20027;-55
2023/08/30 02:32:00;;;;;;;98.93;3.00;;;;;;;11.95;100.00;97822.09;15273249;19;20739;-58
2023/08/30 02:37:28;;;;;;;1.40;1.30;;;;;;;11.91;100.00;97828.03;15272981;19;20002;-59
2023/08/30 02:42:53;;;;;;;2.50;1.20;;;;;;;11.85;100.00;97829.63;15268619;19;20014;-56
2023/08/30 02:48:18;;;;;;;1.25;1.15;;;;;;;11.82;100.00;97820.03;15280031;19;20029;-53
2023/08/30 02:53:45;;;;;;;1.77;1.27;;;;;;;11.79;100.00;97827.69;15276034;19;20810;-53
2023/08/30 02:59:16;;;;;;;2.90;1.30;;;;;;;11.75;100.00;97820.97;15280661;19;20032;-55
2023/08/30 03:04:47;;;;;;;2.10;1.63;;;;;;;11.72;100.00;97824.88;15273215;19;20420;-61
2023/08/30 03:10:16;;;;;;;1.95;1.52;;;;;;;11.64;100.00;97825.78;15279518;19;20486;-58
2023/08/30 03:15:41;;;;;;;2.55;1.50;;;;;;;11.59;100.00;97833.56;15271448;19;20031;-60
2023/08/30 03:21:09;;;;;;;1.30;1.20;;;;;;;11.52;100.00;97838.88;15273166;19;20018;-59
2023/08/30 03:26:37;;;;;;;1.45;1.20;;;;;;;11.47;100.00;97837.72;15276061;19;20055;-60
2023/08/30 03:32:02;;;;;;;5.45;1.35;;;;;;;11.40;100.00;97841.16;15283539;19;20038;-61
2023/08/30 03:37:27;;;;;;;39.05;2.40;;;;;;;11.36;100.00;97855.19;15274279;19;20519;-62
2023/08/30 03:42:54;;;;;;;18.60;2.30;;;;;;;11.25;100.00;97865.38;15271416;19;20023;-60
2023/08/30 03:48:19;;;;;;;5.18;1.98;;;;;;;11.23;100.00;97877.38;15269739;19;20010;-56
2023/08/30 03:53:43;;;;;;;19.08;2.17;;;;;;;11.18;100.00;97879.75;15273847;19;20035;-54
2023/08/30 03:59:18;;;;;;;3.85;1.80;;;;;;;11.14;100.00;97873.88;15273958;19;20011;-60
2023/08/30 04:04:45;;;;;;;3.67;1.63;;;;;;;11.10;100.00;97873.41;15271256;19;20029;-58
2023/08/30 04:10:09;;;;;;;17.45;2.20;;;;;;;11.06;100.00;97869.38;15268833;19;20364;-57
2023/08/30 04:15:38;;;;;;;1.95;1.55;;;;;;;11.05;100.00;97869.56;15268473;19;20364;-56
2023/08/30 04:21:03;;;;;;;55.35;3.17;;;;;;;11.01;100.00;97870.94;15269378;19;20014;-58
2023/08/30 04:26:28;;;;;;;123.97;3.90;;;;;;;10.97;100.00;97873.16;15269197;19;20409;-59
2023/08/30 04:31:56;;;;;;;2.75;2.00;;;;;;;10.93;100.00;97863.72;15273557;19;20006;-57
2023/08/30 04:37:21;;;;;;;1.50;1.40;;;;;;;10.89;100.00;97854.31;15273847;19;20027;-56
2023/08/30 04:42:48;;;;;;;3.08;1.70;;;;;;;10.85;100.00;97864.59;15262178;19;20014;-59
2023/08/30 04:48:16;;;;;;;1.60;1.50;;;;;;;10.83;100.00;97872.03;15258245;19;20042;-57
2023/08/30 04:53:42;;;;;;;1.73;1.60;;;;;;;10.78;100.00;97867.16;15262518;19;20034;-57
2023/08/30 04:59:14;;;;;;;1.85;1.27;;;;;;;10.78;100.00;97880.63;15268672;19;20010;-58
2023/08/30 05:04:43;;;;;;;1.48;1.13;;;;;;;10.78;100.00;97877.94;15269410;19;20010;-61
2023/08/30 05:10:09;;;;;;;1.48;1.20;;;;;;;10.80;100.00;97872.41;15270876;19;20014;-60
2023/08/30 05:15:34;;;;;;;1.40;1.00;;;;;;;10.82;100.00;97870.34;15261421;19;20010;-60
2023/08/30 05:21:03;;;;;;;1.95;1.20;;;;;;;10.83;100.00;97876.59;15263939;19;20010;-60
2023/08/30 05:26:28;;;;;;;2.47;1.10;;;;;;;10.86;100.00;97887.03;15266468;19;20523;-61
2023/08/30 05:31:52;;;;;;;2.65;1.40;;;;;;;10.89;100.00;97884.81;15268471;19;20015;-60
2023/08/30 05:37:40;;;;;;;1.45;1.20;;;;;;;10.96;100.00;97895.72;15271511;19;20370;-58
2023/08/30 05:43:16;;;;;;;3.10;1.20;;;;;;;11.03;100.00;97904.75;15261973;19;20086;-61
2023/08/30 05:48:40;;;;;;;1.45;1.10;;;;;;;11.14;100.00;97917.00;15260293;19;20393;-60
2023/08/30 05:54:08;;;;;;;1.20;1.10;;;;;;;11.25;100.00;97918.44;15256550;19;20014;-60
2023/08/30 05:59:39;;;;;;;1.20;1.08;;;;;;;11.36;100.00;97926.13;15268112;19;20027;-59
2023/08/30 06:05:03;;;;;;;2.10;1.20;;;;;;;11.47;100.00;97932.13;15272927;19;20028;-59
2023/08/30 06:10:31;;;;;;;2.70;1.20;;;;;;;11.58;100.00;97931.75;15282816;19;20014;-60
2023/08/30 06:15:55;;;;;;;2.50;1.20;;;;;;;11.68;100.00;97924.25;15280681;19;20070;-60
2023/08/30 06:21:19;;;;;;;1.90;1.00;;;;;;;11.78;100.00;97918.56;15273718;19;20027;-58
2023/08/30 06:26:47;;;;;;;1.27;1.02;;;;;;;11.92;100.00;97918.81;15273415;19;20082;-58
2023/08/30 06:32:12;;;;;;;2.28;1.23;;;;;;;12.07;100.00;97911.63;15281755;19;20086;-58
2023/08/30 06:37:37;;;;;;;1.48;0.90;;;;;;;12.24;100.00;97885.28;15282508;19;20002;-58
2023/08/30 06:43:04;;;;;;;5.28;1.00;;;;;;;12.44;100.00;97863.97;15276296;19;20015;-58
2023/08/30 06:48:29;;;;;;;1.73;0.90;;;;;;;12.63;100.00;97840.94;15279664;19;20801;-57
2023/08/30 06:53:55;;;;;;;1.17;1.00;;;;;;;12.85;100.00;97830.16;15271462;19;20027;-57
2023/08/30 06:59:30;;;;;;;2.78;0.98;;;;;;;13.04;100.00;97798.13;15272933;19;20019;-57
2023/08/30 07:04:54;;;;;;;2.00;0.90;;;;;;;13.22;100.00;97790.41;15276787;19;20095;-57
2023/08/30 07:10:20;;;;;;;4.07;0.80;;;;;;;13.36;100.00;97748.06;15281202;19;20014;-58
2023/08/30 07:15:47;;;;;;;2.03;0.80;;;;;;;13.55;100.00;97749.28;15273008;19;20242;-58
2023/08/30 07:21:12;;;;;;;1.88;0.90;;;;;;;13.74;100.00;97725.25;15275507;19;20046;-58
2023/08/30 07:26:37;;;;;;;2.05;0.90;;;;;;;13.90;100.00;97693.47;15269471;19;20090;-58
2023/08/30 07:32:04;;;;;;;1.70;0.90;;;;;;;14.04;100.00;97689.81;15271849;19;20010;-59
2023/08/30 07:37:28;;;;;;;2.58;0.90;;;;;;;14.23;100.00;97690.88;15279064;19;20029;-60
2023/08/30 07:42:54;;;;;;;1.40;0.80;;;;;;;14.37;100.00;97670.13;15274107;19;20014;-58
2023/08/30 07:48:21;;;;;;;1.92;0.88;;;;;;;14.55;100.00;97682.22;15277939;19;20014;-59
2023/08/30 07:53:46;;;;;;;3.58;0.85;;;;;;;14.74;100.00;97657.09;15274732;19;20018;-59
2023/08/30 07:59:18;;;;;;;0.63;0.63;;;;;;;14.92;100.00;97637.50;15264569;19;20022;-60
2023/08/30 08:04:45;;;;;;;0.70;0.70;;;;;;;15.10;100.00;97634.13;15263915;19;20471;-58
2023/08/30 08:10:10;;;;;;;1.38;0.70;;;;;;;15.31;100.00;97629.53;15275671;19;20377;-60
2023/08/30 08:15:35;;;;;;;1.55;0.90;;;;;;;15.52;100.00;97617.53;15273767;19;20022;-58
2023/08/30 08:21:04;;;;;;;1.20;0.70;;;;;;;15.74;100.00;97622.72;15273605;19;20514;-56
2023/08/30 08:26:28;;;;;;;4.45;0.80;;;;;;;15.90;100.00;97610.56;15269098;19;20490;-57
2023/08/30 08:31:53;;;;;;;2.75;0.80;;;;;;;16.17;100.00;97614.00;15271672;19;20010;-58
2023/08/30 08:37:21;;;;;;;0.60;0.60;;;;;;;16.38;100.00;97600.28;15272475;19;20018;-58
2023/08/30 08:42:46;;;;;;;0.88;0.70;;;;;;;16.58;100.00;97592.81;15268360;19;20014;-58
2023/08/30 08:48:13;;;;;;;1.52;0.90;;;;;;;16.81;100.00;97596.84;15270766;19;20014;-56
2023/08/30 08:53:41;;;;;;;1.02;0.40;;;;;;;16.93;100.00;97576.00;15269883;19;20408;-56
2023/08/30 08:59:13;;;;;;;1.38;0.50;;;;;;;17.13;100.00;97564.13;15261093;19;20074;-60
2023/08/30 09:04:38;;;;;;;0.57;0.47;;;;;;;17.30;100.00;97564.38;15268518;19;20010;-58
2023/08/30 09:10:06;;;;;;;0.98;0.45;;;;;;;17.48;100.00;97577.16;15268237;19;20022;-59
2023/08/30 09:15:36;;;;;;;0.45;0.43;;;;;;;17.53;100.00;97576.47;15267982;19;20025;-57
2023/08/30 09:21:01;;;;;;;2.35;0.43;;;;;;;17.59;100.00;97566.56;15270996;19;20007;-59
2023/08/30 09:26:28;;;;;;;1.35;0.50;;;;;;;17.69;100.00;97550.53;15268840;19;20019;-59
2023/08/30 09:31:54;;;;;;;0.40;0.40;;;;;;;17.75;100.00;97549.59;15262855;19;20078;-59
2023/08/30 09:37:26;;;;;;;0.60;0.50;;;;;;;17.73;100.00;97543.56;15272243;19;20006;-59
2023/08/30 09:42:54;;;;;;;0.68;0.50;;;;;;;17.96;100.00;97545.56;15291679;19;20089;-59
2023/08/30 09:48:31;;;;;;;0.60;0.40;;;;;;;18.08;100.00;97542.91;15298211;19;20011;-59
2023/08/30 09:54:02;;;;;;;0.60;0.40;;;;;;;18.24;100.00;97540.59;15298208;19;20022;-60
2023/08/30 09:59:38;;;;;;;1.70;0.40;;;;;;;18.23;100.00;97528.03;15294868;19;20350;-58
2023/08/30 10:05:04;;;;;;;1.25;0.50;;;;;;;18.35;100.00;97528.03;15289447;19;20014;-57
2023/08/30 10:10:30;;;;;;;0.55;0.40;;;;;;;18.51;100.00;97523.81;15297841;19;20010;-59
2023/08/30 10:16:04;;;;;;;0.65;0.50;;;;;;;18.51;100.00;97529.28;15294524;19;20046;-58
2023/08/30 10:21:30;;;;;;;0.40;0.40;;;;;;;18.37;100.00;97521.31;15294642;19;20021;-58
2023/08/30 10:27:03;;;;;;;0.65;0.47;;;;;;;18.32;100.00;97524.72;15290309;19;20507;-58
2023/08/30 10:32:31;;;;;;;1.02;0.57;;;;;;;18.41;100.00;97517.03;15295318;19;20017;-57
2023/08/30 10:38:06;;;;;;;0.65;0.38;;;;;;;18.55;100.00;97525.00;15290902;19;20021;-57
2023/08/30 10:43:32;;;;;;;0.82;0.50;;;;;;;18.69;100.00;97518.25;15288035;19;20078;-58
2023/08/30 10:49:00;;;;;;;1.10;0.43;;;;;;;18.78;100.00;97522.28;15296078;19;20031;-60
2023/08/30 10:54:26;;;;;;;0.88;0.47;;;;;;;18.92;100.00;97519.31;15278453;19;20014;-60
2023/08/30 11:00:14;;;;;;;0.77;0.50;;;;;;;19.06;100.00;97509.03;15277427;19;20527;-59
2023/08/30 11:05:43;;;;;;;1.15;0.30;;;;;;;19.23;100.00;97514.56;15274299;19;20022;-58
2023/08/30 11:11:17;;;;;;;2.97;0.50;;;;;;;19.27;100.00;97507.56;15271703;19;20027;-60
2023/08/30 11:16:42;;;;;;;1.35;0.40;;;;;;;19.36;100.00;97505.31;15271526;19;20015;-60
2023/08/30 11:22:17;;;;;;;0.60;0.28;;;;;;;19.48;100.00;97510.72;15278509;19;20042;-60
2023/08/30 11:27:43;;;;;;;0.30;0.30;;;;;;;19.39;100.00;97497.47;15282207;19;20019;-59
2023/08/30 11:33:08;;;;;;;0.38;0.30;;;;;;;19.48;100.00;97488.88;15277562;19;20011;-60
2023/08/30 11:38:36;;;;;;;0.63;0.40;;;;;;;19.34;100.00;97489.19;15280357;19;20023;-58
2023/08/30 11:44:03;;;;;;;0.32;0.32;;;;;;;19.29;100.00;97485.47;15267821;19;20379;-59
2023/08/30 11:49:30;;;;;;;0.60;0.45;;;;;;;19.26;100.00;97481.34;15273990;19;20011;-59
2023/08/30 11:54:59;;;;;;;0.85;0.40;;;;;;;19.22;100.00;97477.44;15275249;19;20073;-56
2023/08/30 12:00:26;;;;;;;0.22;0.22;;;;;;;19.26;100.00;97475.88;15276194;19;20029;-61
2023/08/30 12:05:54;;;;;;;0.65;0.40;;;;;;;19.32;100.00;97485.00;15272321;19;20021;-58
2023/08/30 12:11:24;;;;;;;0.30;0.30;;;;;;;19.34;100.00;97475.53;15275420;19;20018;-60
2023/08/30 12:16:50;;;;;;;0.55;0.40;;;;;;;19.46;100.00;97475.47;15265764;19;20014;-59
2023/08/30 12:22:15;;;;;;;0.40;0.40;;;;;;;19.54;100.00;97472.34;15268968;19;20429;-58
2023/08/30 12:27:42;;;;;;;1.10;0.47;;;;;;;19.55;100.00;97467.72;15276220;19;20021;-58
2023/08/30 12:33:07;;;;;;;0.50;0.40;;;;;;;19.63;100.00;97467.34;15272282;19;20542;-57
2023/08/30 12:38:33;;;;;;;0.40;0.40;;;;;;;19.69;100.00;97457.34;15276672;19;20734;-58
2023/08/30 12:44:01;;;;;;;0.50;0.40;;;;;;;19.67;100.00;97456.75;15271835;19;20014;-58
2023/08/30 12:49:26;;;;;;;1.02;0.40;;;;;;;19.58;100.00;97456.28;15268792;19;20011;-58
2023/08/30 12:54:52;;;;;;;0.50;0.32;;;;;;;19.53;100.00;97450.75;15266719;19;20021;-56
2023/08/30 13:00:26;;;;;;;2.70;0.40;;;;;;;19.51;100.00;97456.47;15272685;19;20014;-60
2023/08/30 13:05:50;;;;;;;0.65;0.30;;;;;;;19.47;100.00;97448.97;15271100;19;20474;-59
2023/08/30 13:11:15;;;;;;;0.40;0.40;;;;;;;19.51;100.00;97445.53;15269392;19;20019;-55
2023/08/30 13:16:43;;;;;;;0.40;0.40;;;;;;;19.54;100.00;97441.50;15263715;19;20026;-57
2023/08/30 13:22:01;;;;;;;0.40;0.40;;;;;;;19.58;100.00;97434.44;15268533;19;20032;-58
2023/08/30 13:27:25;;;;;;;0.65;0.40;;;;;;;19.59;100.00;97447.03;15266922;19;20479;-59
2023/08/30 13:32:52;;;;;;;0.40;0.40;;;;;;;19.50;100.00;97443.88;15269889;19;20021;-57
2023/08/30 13:38:17;;;;;;;0.30;0.30;;;;;;;19.46;100.00;97441.88;15270872;19;20070;-58
2023/08/30 13:43:41;;;;;;;1.15;0.50;;;;;;;19.39;100.00;97442.03;15267038;19;20821;-56
2023/08/30 13:49:09;;;;;;;1.65;0.50;;;;;;;19.41;100.00;97434.38;15265603;19;20010;-58
2023/08/30 13:54:35;;;;;;;0.50;0.50;;;;;;;19.33;100.00;97443.81;15268199;19;20027;-56
2023/08/30 14:00:09;;;;;;;1.02;0.50;;;;;;;19.29;100.00;97434.44;15262168;19;20348;-55
2023/08/30 14:05:40;;;;;;;0.85;0.60;;;;;;;19.25;100.00;97425.06;15266713;19;20521;-58
2023/08/30 14:11:04;;;;;;;0.45;0.40;;;;;;;19.20;100.00;97428.53;15266419;19;20470;-60
2023/08/30 14:16:29;;;;;;;0.40;0.40;;;;;;;19.21;100.00;97424.72;15262376;19;20415;-60
2023/08/30 14:21:58;;;;;;;0.57;0.40;;;;;;;19.38;100.00;97423.97;15259879;19;20524;-56
2023/08/30 14:27:23;;;;;;;0.40;0.40;;;;;;;19.76;100.00;97422.47;15275594;19;20341;-59
2023/08/30 14:32:49;;;;;;;1.63;0.50;;;;;;;20.16;100.00;97413.38;15277119;19;20022;-58
2023/08/30 14:38:16;;;;;;;0.70;0.40;;;;;;;20.44;100.00;97424.47;15278887;19;20081;-59
2023/08/30 14:43:42;;;;;;;0.98;0.50;;;;;;;20.56;100.00;97413.44;15275995;19;20016;-59
2023/08/30 14:49:07;;;;;;;0.85;0.50;;;;;;;20.67;100.00;97419.88;15283032;19;20026;-57
2023/08/30 14:54:34;;;;;;;5.47;0.65;;;;;;;20.96;100.00;97419.78;15272589;19;20010;-55
2023/08/30 15:00:05;;;;;;;0.40;0.40;;;;;;;21.15;100.00;97420.28;15275696;19;20489;-57
2023/08/30 15:05:30;;;;;;;1.55;0.60;;;;;;;21.38;100.00;97416.44;15272562;19;20488;-60
2023/08/30 15:10:57;;;;;;;1.88;0.40;;;;;;;21.62;100.00;97406.06;15279825;19;20011;-56
2023/08/30 15:16:22;;;;;;;0.40;0.40;;;;;;;21.80;100.00;97413.09;15277005;19;20007;-51
2023/08/30 15:21:46;;;;;;;0.40;0.40;;;;;;;21.91;100.00;97407.72;15277384;19;20028;-57
2023/08/30 15:27:14;;;;;;;0.70;0.70;;;;;;;22.10;100.00;97399.94;15266498;19;20743;-56
2023/08/30 15:32:40;;;;;;;0.50;0.43;;;;;;;22.10;100.00;97405.41;15275996;19;20022;-58
2023/08/30 15:38:06;;;;;;;2.00;0.60;;;;;;;21.84;100.00;97399.69;15274066;19;20357;-61
2023/08/30 15:43:39;;;;;;;1.10;0.50;;;;;;;21.63;100.00;97395.91;15270004;19;20011;-60
2023/08/30 15:49:04;;;;;;;0.55;0.55;;;;;;;21.40;100.00;97393.19;15277018;19;20013;-60
2023/08/30 15:54:28;;;;;;;0.50;0.50;;;;;;;21.22;100.00;97391.63;15274659;19;20029;-60
2023/08/30 16:00:03;;;;;;;1.25;0.80;;;;;;;21.06;100.00;97389.78;15266849;19;20029;-60
2023/08/30 16:05:28;;;;;;;1.08;0.60;;;;;;;20.98;100.00;97384.75;15276483;19;20017;-61
2023/08/30 16:10:52;;;;;;;1.77;0.70;;;;;;;20.73;100.00;97388.78;15274559;19;20089;-57
2023/08/30 16:16:20;;;;;;;0.80;0.77;;;;;;;20.42;100.00;97388.31;15271581;19;20022;-59
2023/08/30 16:21:45;;;;;;;0.88;0.60;;;;;;;20.21;100.00;97382.53;15275188;19;20014;-59
2023/08/30 16:27:11;;;;;;;1.75;0.93;;;;;;;19.95;100.00;97381.31;15271433;19;20021;-59
2023/08/30 16:32:41;;;;;;;1.25;0.70;;;;;;;19.74;100.00;97385.56;15266035;19;20373;-57
2023/08/30 16:38:07;;;;;;;0.73;0.70;;;;;;;19.53;100.00;97393.38;15271030;19;20022;-58
2023/08/30 16:43:31;;;;;;;0.70;0.70;;;;;;;19.24;100.00;97386.03;15270995;19;20036;-59
2023/08/30 16:48:59;;;;;;;2.33;0.73;;;;;;;18.72;100.00;97400.47;15268206;19;20010;-57
2023/08/30 16:54:25;;;;;;;1.00;0.80;;;;;;;18.41;100.00;97394.31;15265007;19;20014;-57
2023/08/30 16:59:51;;;;;;;0.70;0.70;;;;;;;18.26;100.00;97389.34;15266978;19;20018;-56
2023/08/30 17:05:19;;;;;;;0.70;0.70;;;;;;;18.25;100.00;97382.22;15263053;19;20029;-58
2023/08/30 17:10:45;;;;;;;0.70;0.70;;;;;;;18.38;100.00;97366.69;15267492;19;20021;-59
2023/08/30 17:16:10;;;;;;;1.25;0.80;;;;;;;18.35;100.00;97376.19;15270440;19;20078;-52
2023/08/30 17:21:37;;;;;;;1.85;0.90;;;;;;;18.30;100.00;97386.97;15271637;19;20030;-55
2023/08/30 17:27:03;;;;;;;1.38;1.00;;;;;;;18.29;100.00;97390.75;15268396;19;20019;-57
2023/08/30 17:32:29;;;;;;;2.83;1.10;;;;;;;18.21;100.00;97399.28;15270671;19;20427;-58
2023/08/30 17:37:56;;;;;;;1.85;1.27;;;;;;;18.11;100.00;97399.91;15263140;19;20602;-52
2023/08/30 17:43:21;;;;;;;1.20;1.10;;;;;;;18.00;100.00;97398.81;15263102;19;20014;-55
2023/08/30 17:48:46;;;;;;;1.20;0.90;;;;;;;17.95;100.00;97395.91;15271272;19;20010;-52
2023/08/30 17:54:15;;;;;;;2.38;1.20;;;;;;;17.86;100.00;97400.88;15268182;19;20010;-53
2023/08/30 17:59:41;;;;;;;0.98;0.90;;;;;;;17.76;100.00;97395.19;15272023;19;20018;-53
2023/08/30 18:05:07;;;;;;;0.98;0.95;;;;;;;17.64;100.00;97397.84;15281321;19;20010;-55
2023/08/30 18:10:34;;;;;;;1.30;1.00;;;;;;;17.54;100.00;97401.97;15277411;19;20041;-60
2023/08/30 18:15:59;;;;;;;1.70;0.90;;;;;;;17.44;100.00;97407.16;15264599;19;20026;-57
2023/08/30 18:21:23;;;;;;;1.13;1.00;;;;;;;17.37;100.00;97404.53;15281113;19;20024;-58
2023/08/30 18:26:51;;;;;;;0.90;0.90;;;;;;;17.31;100.00;97396.44;15274363;19;20476;-57
2023/08/30 18:32:16;;;;;;;0.90;0.90;;;;;;;17.23;100.00;97409.28;15280786;19;20018;-58
2023/08/30 18:37:42;;;;;;;1.20;0.90;;;;;;;17.12;100.00;97404.63;15284802;19;20021;-56
2023/08/30 18:43:09;;;;;;;1.23;1.15;;;;;;;17.02;100.00;97421.50;15267103;19;20355;-60
2023/08/30 18:48:35;;;;;;;1.35;1.02;;;;;;;16.88;100.00;97422.69;15275932;19;20513;-58
2023/08/30 18:54:01;;;;;;;0.90;0.90;;;;;;;16.76;100.00;97425.31;15277922;19;20011;-57
2023/08/30 18:59:30;;;;;;;1.15;0.95;;;;;;;16.70;100.00;97421.59;15265695;19;20459;-58
2023/08/30 19:04:55;;;;;;;1.48;0.95;;;;;;;16.67;100.00;97418.50;15270865;19;20018;-60
2023/08/30 19:10:21;;;;;;;1.10;0.90;;;;;;;16.61;100.00;97425.66;15270690;19;20021;-59
2023/08/30 19:15:50;;;;;;;0.93;0.85;;;;;;;16.54;100.00;97425.72;15268506;19;20221;-59
2023/08/30 19:21:19;;;;;;;1.00;0.90;;;;;;;16.49;100.00;97428.31;15269231;19;20022;-58
2023/08/30 19:26:43;;;;;;;0.80;0.80;;;;;;;16.43;100.00;97423.75;15271642;19;20039;-56
2023/08/30 19:32:11;;;;;;;0.98;0.85;;;;;;;16.40;100.00;97429.66;15273272;19;20022;-60
2023/08/30 19:37:37;;;;;;;1.85;0.95;;;;;;;16.37;100.00;97427.38;15281332;19;20019;-56
2023/08/30 19:43:02;;;;;;;1.00;0.90;;;;;;;16.31;100.00;97427.19;15276660;19;20030;-59
2023/08/30 19:48:29;;;;;;;1.02;0.95;;;;;;;16.27;100.00;97428.72;15251072;19;20050;-59
2023/08/30 19:53:56;;;;;;;0.98;0.90;;;;;;;16.25;100.00;97436.25;15271813;19;20883;-57
2023/08/30 19:59:20;;;;;;;1.30;1.00;;;;;;;16.23;100.00;97440.25;15275565;19;20015;-56
2023/08/30 20:04:47;;;;;;;1.00;0.90;;;;;;;16.18;100.00;97438.19;15275028;19;20373;-53
2023/08/30 20:10:13;;;;;;;0.90;0.80;;;;;;;16.14;100.00;97426.13;15277191;19;20010;-57
2023/08/30 20:15:38;;;;;;;1.48;0.95;;;;;;;16.08;100.00;97433.25;15270437;19;20562;-60
2023/08/30 20:21:06;;;;;;;0.80;0.80;;;;;;;16.05;100.00;97424.72;15277813;19;20015;-56
2023/08/30 20:26:31;;;;;;;0.90;0.90;;;;;;;16.00;100.00;97423.50;15268176;19;20023;-58
2023/08/30 20:31:55;;;;;;;0.93;0.90;;;;;;;15.95;100.00;97426.03;15276698;19;20036;-55
2023/08/30 20:37:23;;;;;;;1.23;1.00;;;;;;;15.91;100.00;97421.25;15277652;19;20389;-58
2023/08/30 20:42:47;;;;;;;1.63;1.10;;;;;;;15.81;100.00;97428.00;15276024;19;20074;-54
2023/08/30 20:48:12;;;;;;;1.67;1.05;;;;;;;15.78;100.00;97430.31;15267117;19;20018;-56
2023/08/30 20:53:49;;;;;;;1.13;1.10;;;;;;;15.70;100.00;97421.38;15274302;19;20018;-55
2023/08/30 20:59:15;;;;;;;1.85;1.00;;;;;;;15.66;100.00;97433.75;15268576;19;20014;-58
2023/08/30 21:04:39;;;;;;;1.67;1.00;;;;;;;15.63;100.00;97434.16;14762096;19;10000168;-58
2023/08/30 21:10:14;;;;;;;0.60;0.60;;;;;;;15.34;100.00;97482.56;15274435;19;20021;-59
2023/08/30 21:15:39;;;;;;;0.28;0.28;;;;;;;15.22;100.00;97482.38;15270796;19;20014;-57
2023/08/30 21:21:05;;;;;;;0.30;0.30;;;;;;;15.10;100.00;97484.09;15264091;19;20015;-56
2023/08/30 21:26:32;;;;;;;0.55;0.20;;;;;;;14.94;100.00;97480.78;15270224;19;20574;-59
2023/08/30 21:31:57;;;;;;;0.20;0.20;;;;;;;14.86;100.00;97491.06;15265377;19;20021;-58
2023/08/30 21:37:22;;;;;;;1.27;0.30;;;;;;;14.73;100.00;97503.59;15270646;19;20045;-61
2023/08/30 21:42:49;;;;;;;0.22;0.22;;;;;;;14.66;100.00;97518.16;15271042;19;20014;-58
2023/08/30 21:48:14;;;;;;;0.63;0.30;;;;;;;14.56;100.00;97518.56;15271011;19;20010;-60
2023/08/30 21:53:39;;;;;;;0.65;0.30;;;;;;;14.43;100.00;97514.81;15262333;19;20006;-61
2023/08/30 21:59:06;;;;;;;1.65;0.40;;;;;;;14.09;100.00;97523.97;15268696;19;20023;-60
2023/08/30 22:04:33;;;;;;;0.30;0.30;;;;;;;13.81;100.00;97542.03;15261241;19;20029;-59
2023/08/30 22:09:58;;;;;;;1.90;0.40;;;;;;;13.53;100.00;97586.28;15271386;19;20022;-62
2023/08/30 22:15:26;;;;;;;1.65;0.20;;;;;;;13.26;100.00;97623.16;15265859;19;20512;-62
2023/08/30 22:20:52;;;;;;;0.85;0.30;;;;;;;13.14;100.00;97668.81;15268976;19;20090;-61
2023/08/30 22:26:17;;;;;;;2.08;0.40;;;;;;;12.99;100.00;97704.06;15259648;19;20026;-59
2023/08/30 22:31:44;;;;;;;1.80;0.70;;;;;;;12.83;100.00;97704.31;15264572;19;20026;-64
2023/08/30 22:37:09;;;;;;;3.80;0.82;;;;;;;12.69;100.00;97708.75;15264317;19;20732;-63
2023/08/30 22:42:35;;;;;;;1.38;0.70;;;;;;;12.57;100.00;97717.38;15266697;19;20400;-60
2023/08/30 22:48:02;;;;;;;2.35;0.50;;;;;;;12.53;100.00;97726.06;15271612;19;20018;-62
2023/08/30 22:53:28;;;;;;;2.95;0.60;;;;;;;12.47;100.00;97727.66;15280276;19;20014;-61
2023/08/30 22:58:52;;;;;;;1.30;0.55;;;;;;;12.45;100.00;97759.44;15270309;19;20422;-61
2023/08/30 23:04:19;;;;;;;0.73;0.60;;;;;;;12.43;100.00;97724.50;15277557;19;20366;-61
2023/08/30 23:09:45;;;;;;;0.68;0.55;;;;;;;12.44;100.00;97717.22;15272320;19;20018;-61
2023/08/30 23:15:10;;;;;;;1.15;0.60;;;;;;;12.44;100.00;97722.63;15275807;19;20011;-60
2023/08/30 23:20:38;;;;;;;1.15;0.55;;;;;;;12.46;100.00;97699.81;15277016;19;20022;-59
2023/08/30 23:26:06;;;;;;;0.50;0.50;;;;;;;12.48;100.00;97702.31;15274402;19;20029;-59
2023/08/30 23:31:32;;;;;;;1.02;0.60;;;;;;;12.48;100.00;97686.13;15269853;19;20020;-59
2023/08/30 23:36:59;;;;;;;0.47;0.43;;;;;;;12.48;100.00;97673.44;15274750;19;20011;-60
2023/08/30 23:42:24;;;;;;;1.83;0.52;;;;;;;12.46;100.00;97688.16;15274474;19;20025;-59
2023/08/30 23:47:50;;;;;;;0.65;0.57;;;;;;;12.46;100.00;97716.03;15275645;19;20010;-59
2023/08/30 23:53:17;;;;;;;1.90;0.60;;;;;;;12.43;100.00;97727.22;15275343;19;20019;-61
2023/08/30 23:58:42;;;;;;;0.55;0.40;;;;;;;12.39;100.00;97746.69;15273907;19;20018;-58
